Time;durP1;ratioP1;P1;durP2;ratioP2;P2;SDS_P1;SDS_P2;PMS_P1;PMS_P2;Temp;Humidity;BMP_temperature;BMP_pressure;BME280_temperature;BME280_humidity;BME280_pressure;Samples;Min_cycle;Max_cycle;Signal;HPM_P1;HPM_P2
2023/06/29 00:03:50;;;;;;;12.38;8.15;;;29.20;56.50;;;;;;10540288;28;20072;-35
2023/06/29 00:08:52;;;;;;;13.15;8.45;;;29.10;56.50;;;;;;10538810;28;20063;-35
2023/06/29 00:13:56;;;;;;;15.70;8.57;;;29.00;56.80;;;;;;10546196;28;20135;-31
2023/06/29 00:19:00;;;;;;;15.95;8.85;;;29.00;56.60;;;;;;10534444;28;20051;-32
2023/06/29 00:24:02;;;;;;;12.20;8.27;;;28.90;57.00;;;;;;10538981;28;20063;-31
2023/06/29 00:29:06;;;;;;;13.77;8.63;;;28.90;57.10;;;;;;10541005;28;20149;-31
2023/06/29 00:34:08;;;;;;;13.05;7.95;;;29.00;57.00;;;;;;10537473;28;20044;-33
2023/06/29 00:39:10;;;;;;;11.98;7.68;;;29.00;57.00;;;;;;10536289;28;20145;-33
2023/06/29 00:44:13;;;;;;;12.60;8.13;;;29.00;57.00;;;;;;10535454;28;20074;-31
2023/06/29 00:49:15;;;;;;;11.75;7.35;;;28.90;57.00;;;;;;10530780;28;20580;-32
2023/06/29 00:54:17;;;;;;;13.20;8.38;;;28.90;57.10;;;;;;10537486;28;20080;-35
2023/06/29 00:59:20;;;;;;;15.00;8.10;;;28.80;57.30;;;;;;10535842;28;20138;-32
2023/06/29 01:04:24;;;;;;;13.60;8.30;;;28.80;57.40;;;;;;10532976;28;20557;-38
2023/06/29 01:09:27;;;;;;;13.77;9.18;;;28.80;57.50;;;;;;10525249;28;20540;-34
2023/06/29 01:14:33;;;;;;;17.35;8.82;;;28.70;57.60;;;;;;10532103;28;20135;-34
2023/06/29 01:19:35;;;;;;;13.20;8.20;;;28.80;57.50;;;;;;10543480;28;20048;-37
2023/06/29 01:24:40;;;;;;;12.80;7.97;;;28.70;57.60;;;;;;10535737;28;20071;-34
2023/06/29 01:29:42;;;;;;;13.57;7.13;;;28.80;57.70;;;;;;10537475;28;20044;-34
2023/06/29 01:34:44;;;;;;;12.68;8.15;;;28.70;57.60;;;;;;10535012;28;20136;-36
2023/06/29 01:39:52;;;;;;;14.85;7.88;;;28.60;58.00;;;;;;10535909;28;20047;-33
2023/06/29 01:44:55;;;;;;;10.85;7.93;;;28.60;58.00;;;;;;10535691;28;20497;-32
2023/06/29 01:49:57;;;;;;;12.10;7.88;;;28.60;57.90;;;;;;10535047;28;20048;-36
2023/06/29 01:55:00;;;;;;;13.85;8.23;;;28.60;58.00;;;;;;10533255;28;20086;-34
2023/06/29 02:00:03;;;;;;;11.98;8.77;;;28.60;58.20;;;;;;10534705;28;20136;-33
2023/06/29 02:05:06;;;;;;;12.65;7.80;;;28.40;58.70;;;;;;10540379;28;20044;-33
2023/06/29 02:10:10;;;;;;;14.68;8.95;;;28.50;58.30;;;;;;10522857;28;20040;-32
2023/06/29 02:15:12;;;;;;;14.23;7.80;;;28.50;58.50;;;;;;10540832;28;20130;-34
2023/06/29 02:20:14;;;;;;;14.43;9.13;;;28.50;58.40;;;;;;10533923;28;20072;-32
2023/06/29 02:25:18;;;;;;;13.32;8.38;;;28.30;59.00;;;;;;10545338;28;20047;-36
2023/06/29 02:30:20;;;;;;;11.32;7.50;;;28.40;58.70;;;;;;10533507;28;20477;-32
2023/06/29 02:35:21;;;;;;;14.27;9.15;;;28.40;58.80;;;;;;10538738;28;20063;-32
2023/06/29 02:40:25;;;;;;;11.60;7.93;;;28.40;58.60;;;;;;10535795;28;20172;-35
2023/06/29 02:45:26;;;;;;;13.80;8.15;;;28.40;59.10;;;;;;10535197;28;20066;-32
2023/06/29 02:50:28;;;;;;;14.27;8.43;;;28.40;58.60;;;;;;10524994;28;20162;-32
2023/06/29 02:55:32;;;;;;;14.50;8.98;;;28.40;58.60;;;;;;10534094;28;20404;-33
2023/06/29 03:15:28;;;;;;;14.60;9.55;;;28.30;58.50;;;;;;10470770;27;2095731;-31
2023/06/29 03:20:30;;;;;;;14.05;9.20;;;28.10;59.80;;;;;;10564865;28;20070;-36
2023/06/29 03:25:31;;;;;;;14.68;9.27;;;28.10;59.10;;;;;;10549945;28;20052;-37
2023/06/29 03:30:35;;;;;;;13.55;9.60;;;28.00;59.70;;;;;;10565251;28;20097;-32
2023/06/29 03:35:36;;;;;;;16.45;9.88;;;28.10;59.40;;;;;;10552611;28;20460;-34
2023/06/29 03:40:38;;;;;;;13.68;8.93;;;27.80;59.70;;;;;;10560517;28;20101;-34
2023/06/29 03:45:41;;;;;;;16.10;9.57;;;28.10;59.40;;;;;;10560439;28;20078;-32
2023/06/29 03:50:43;;;;;;;15.48;9.60;;;27.70;60.10;;;;;;10559708;28;20105;-36
2023/06/29 03:55:45;;;;;;;13.00;8.80;;;28.00;59.30;;;;;;10561809;28;20397;-40
2023/06/29 04:00:48;;;;;;;15.70;9.95;;;27.70;60.10;;;;;;10566026;28;20082;-31
2023/06/29 04:05:50;;;;;;;15.25;9.65;;;28.00;59.30;;;;;;10562101;28;20044;-32
2023/06/29 04:10:52;;;;;;;14.10;9.18;;;28.00;59.10;;;;;;10565968;28;20089;-33
2023/06/29 04:15:55;;;;;;;15.15;9.55;;;27.90;59.30;;;;;;10561502;28;20071;-33
2023/06/29 04:20:57;;;;;;;16.35;9.73;;;27.80;59.50;;;;;;10563474;28;20075;-33
2023/06/29 04:26:02;;;;;;;14.55;9.27;;;27.90;59.30;;;;;;10538427;28;20067;-34
2023/06/29 04:31:05;;;;;;;17.67;10.63;;;28.00;59.40;;;;;;10530913;28;20393;-32
2023/06/29 04:36:07;;;;;;;15.98;9.52;;;28.00;59.40;;;;;;10523202;28;20064;-33
2023/06/29 04:41:09;;;;;;;15.85;10.65;;;28.00;59.40;;;;;;10524279;28;20052;-33
2023/06/29 04:46:13;;;;;;;18.25;11.52;;;27.90;59.70;;;;;;10528363;28;20723;-34
2023/06/29 04:51:17;;;;;;;17.83;11.15;;;28.00;59.40;;;;;;10529180;28;20089;-34
2023/06/29 04:56:19;;;;;;;19.13;11.60;;;28.00;59.40;;;;;;10534236;28;20472;-33
2023/06/29 05:01:22;;;;;;;18.83;11.73;;;27.90;59.80;;;;;;10527744;28;20545;-32
2023/06/29 05:06:24;;;;;;;21.58;12.43;;;28.00;59.40;;;;;;10526491;28;20217;-33
2023/06/29 05:11:25;;;;;;;22.50;11.98;;;27.90;59.30;;;;;;10531085;28;20078;-34
2023/06/29 05:16:29;;;;;;;23.08;12.65;;;28.00;59.30;;;;;;10526487;28;20053;-32
2023/06/29 05:21:31;;;;;;;22.27;13.20;;;27.90;59.30;;;;;;10522127;28;20043;-33
2023/06/29 05:26:33;;;;;;;18.30;11.95;;;28.00;59.40;;;;;;10532927;28;20093;-33
2023/06/29 05:31:36;;;;;;;23.40;13.32;;;27.80;59.60;;;;;;10518774;28;20138;-34
2023/06/29 05:36:38;;;;;;;21.00;12.82;;;27.80;59.80;;;;;;10515443;28;20035;-38
2023/06/29 05:41:40;;;;;;;17.40;10.35;;;27.90;59.50;;;;;;10529938;28;20097;-34
2023/06/29 05:46:43;;;;;;;18.08;12.20;;;27.90;59.50;;;;;;10519172;28;20075;-34
2023/06/29 05:51:45;;;;;;;22.42;12.52;;;27.50;61.10;;;;;;10515682;28;20061;-36
2023/06/29 05:56:47;;;;;;;22.10;13.43;;;27.80;59.80;;;;;;10525846;28;20123;-32
2023/06/29 06:01:50;;;;;;;21.65;12.98;;;27.70;59.70;;;;;;10519718;28;20048;-31
2023/06/29 06:06:52;;;;;;;19.08;11.73;;;27.80;59.80;;;;;;10512339;28;20109;-32
2023/06/29 06:11:54;;;;;;;22.13;13.10;;;27.80;59.70;;;;;;10524180;28;20112;-33
2023/06/29 06:16:58;;;;;;;20.52;12.82;;;27.80;59.60;;;;;;10522969;28;20045;-32
2023/06/29 06:21:59;;;;;;;23.75;13.85;;;27.80;59.80;;;;;;10517670;28;20608;-33
2023/06/29 06:27:01;;;;;;;22.95;13.75;;;27.70;59.80;;;;;;10523062;28;20541;-33
2023/06/29 06:32:05;;;;;;;24.02;13.25;;;27.80;59.70;;;;;;10527996;28;20434;-38
2023/06/29 06:37:08;;;;;;;26.20;13.23;;;27.70;60.30;;;;;;10516787;28;20072;-32
2023/06/29 06:42:10;;;;;;;31.23;15.90;;;27.70;60.00;;;;;;10520793;28;20480;-31
2023/06/29 06:47:13;;;;;;;25.17;13.65;;;27.10;62.50;;;;;;10514820;28;20101;-32
2023/06/29 06:52:15;;;;;;;28.65;15.60;;;27.60;60.90;;;;;;10523491;28;20130;-34
2023/06/29 06:57:17;;;;;;;21.00;13.43;;;26.80;64.40;;;;;;10521794;28;20097;-34
2023/06/29 07:02:21;;;;;;;21.80;13.48;;;27.00;63.10;;;;;;10516591;28;20126;-36
2023/06/29 07:07:23;;;;;;;21.55;11.73;;;26.60;65.30;;;;;;10522948;28;20047;-34
2023/06/29 07:12:25;;;;;;;21.52;11.90;;;26.10;68.50;;;;;;10521414;28;20048;-33
2023/06/29 07:17:30;;;;;;;18.42;10.50;;;24.70;77.30;;;;;;10522100;28;20051;-33
2023/06/29 07:22:32;;;;;;;19.63;11.75;;;26.20;68.10;;;;;;10510496;28;20951;-32
2023/06/29 07:27:34;;;;;;;20.73;10.90;;;26.80;65.30;;;;;;10506852;28;20374;-32
2023/06/29 07:32:37;;;;;;;16.13;10.52;;;26.30;68.80;;;;;;10521670;28;20079;-32
2023/06/29 07:37:39;;;;;;;17.15;8.98;;;26.30;72.20;;;;;;10518484;28;20114;-34
2023/06/29 07:42:41;;;;;;;18.13;9.50;;;26.40;73.20;;;;;;10520783;28;20052;-32
2023/06/29 07:47:44;;;;;;;19.33;9.05;;;26.90;67.20;;;;;;10506307;28;20053;-34
2023/06/29 07:52:46;;;;;;;16.77;9.40;;;26.60;71.60;;;;;;10525699;28;20140;-31
2023/06/29 07:57:48;;;;;;;13.23;7.50;;;26.00;72.10;;;;;;10534864;28;20408;-38
2023/06/29 08:02:51;;;;;;;16.15;8.82;;;27.00;66.70;;;;;;10530809;28;20048;-34
2023/06/29 08:07:53;;;;;;;12.82;8.25;;;26.90;66.60;;;;;;10500417;28;20389;-34
2023/06/29 08:12:55;;;;;;;14.35;8.10;;;27.30;65.20;;;;;;10510773;28;20055;-35
2023/06/29 08:17:59;;;;;;;14.00;7.82;;;27.30;64.60;;;;;;10530995;28;20245;-33
2023/06/29 08:23:01;;;;;;;14.80;8.70;;;26.10;71.80;;;;;;10531921;28;20044;-32
2023/06/29 08:28:03;;;;;;;16.70;8.23;;;25.90;72.70;;;;;;10523089;28;20118;-34
2023/06/29 08:33:06;;;;;;;16.85;8.90;;;27.10;66.70;;;;;;10522046;28;20642;-31
2023/06/29 08:38:08;;;;;;;18.75;9.52;;;26.80;69.70;;;;;;10511444;28;20060;-36
2023/06/29 08:43:11;;;;;;;17.77;9.85;;;26.90;68.60;;;;;;10525023;28;20099;-32
2023/06/29 08:48:16;;;;;;;23.00;9.18;;;26.20;71.50;;;;;;10520938;28;20058;-33
2023/06/29 08:53:18;;;;;;;20.73;9.82;;;26.10;73.10;;;;;;10533353;28;20138;-31
2023/06/29 08:58:21;;;;;;;13.70;8.50;;;26.40;70.60;;;;;;10532847;28;20072;-34
2023/06/29 09:03:26;;;;;;;18.20;9.48;;;26.90;67.70;;;;;;10516707;28;20051;-35
2023/06/29 09:08:28;;;;;;;15.90;8.65;;;26.50;69.20;;;;;;10519773;28;20487;-37
2023/06/29 09:13:30;;;;;;;15.02;8.75;;;25.90;72.60;;;;;;10525132;28;20556;-39
2023/06/29 09:18:34;;;;;;;15.65;7.88;;;25.80;73.50;;;;;;10518789;28;20083;-36
2023/06/29 09:23:42;;;;;;;15.77;8.65;;;26.40;70.60;;;;;;10518203;28;20051;-39
2023/06/29 09:28:46;;;;;;;21.08;10.40;;;25.40;76.70;;;;;;10516990;28;20097;-40
2023/06/29 09:33:49;;;;;;;25.38;10.30;;;25.60;75.80;;;;;;10530355;28;20488;-38
2023/06/29 09:38:54;;;;;;;21.65;11.23;;;25.20;77.40;;;;;;10518527;28;20052;-37
2023/06/29 09:43:56;;;;;;;14.30;7.55;;;23.80;86.20;;;;;;10518802;28;20404;-34
2023/06/29 09:49:01;;;;;;;20.80;10.70;;;25.90;75.80;;;;;;10522093;28;20125;-33
2023/06/29 09:54:03;;;;;;;23.50;11.43;;;24.50;84.60;;;;;;10528706;28;20146;-34
2023/06/29 09:59:05;;;;;;;24.63;11.95;;;24.90;82.60;;;;;;10519204;28;20106;-33
2023/06/29 10:04:09;;;;;;;17.63;10.07;;;25.30;79.90;;;;;;10505158;28;20040;-32
2023/06/29 10:09:13;;;;;;;21.77;10.70;;;24.50;85.40;;;;;;10518925;28;20115;-38
2023/06/29 10:14:18;;;;;;;18.48;10.02;;;24.40;85.20;;;;;;10516172;28;20460;-35
2023/06/29 10:19:22;;;;;;;21.73;12.48;;;25.00;82.80;;;;;;10513541;28;20036;-31
2023/06/29 10:24:29;;;;;;;22.55;12.57;;;24.10;86.20;;;;;;10522685;28;20094;-32
2023/06/29 10:29:31;;;;;;;19.25;10.40;;;24.20;86.40;;;;;;10507307;28;20146;-36
2023/06/29 10:34:38;;;;;;;17.55;8.93;;;24.40;85.90;;;;;;10528501;28;20493;-32
2023/06/29 10:39:41;;;;;;;20.13;11.27;;;25.80;78.20;;;;;;10529507;28;20090;-32
2023/06/29 10:44:47;;;;;;;21.63;11.38;;;24.50;85.60;;;;;;10527012;28;20080;-35
2023/06/29 10:50:17;;;;;;;18.38;9.93;;;25.20;82.30;;;;;;10528101;28;20052;-32
2023/06/29 10:55:22;;;;;;;14.85;8.18;;;25.60;78.20;;;;;;10526957;28;20519;-39
2023/06/29 11:00:25;;;;;;;23.80;12.73;;;25.60;78.30;;;;;;10528156;28;20078;-39
2023/06/29 11:05:28;;;;;;;21.98;12.15;;;23.80;87.80;;;;;;10528293;28;20518;-33
2023/06/29 11:10:30;;;;;;;19.67;9.43;;;26.10;73.90;;;;;;10529192;28;20553;-35
2023/06/29 11:15:33;;;;;;;19.75;11.65;;;26.10;74.90;;;;;;10527343;28;20136;-33
2023/06/29 11:20:38;;;;;;;12.75;8.23;;;26.50;71.00;;;;;;10523720;28;20036;-30
2023/06/29 11:25:40;;;;;;;17.30;9.90;;;27.30;67.40;;;;;;10525581;28;20441;-34
2023/06/29 11:30:42;;;;;;;14.70;9.30;;;26.30;72.80;;;;;;10520530;28;20052;-33
2023/06/29 11:35:45;;;;;;;18.27;10.80;;;26.90;68.60;;;;;;10529889;28;20087;-33
2023/06/29 11:40:47;;;;;;;23.35;11.23;;;26.50;70.30;;;;;;10537163;28;20054;-35
2023/06/29 11:45:50;;;;;;;16.38;9.60;;;26.40;70.70;;;;;;10521741;28;20094;-32
2023/06/29 11:50:53;;;;;;;17.70;9.35;;;25.20;79.80;;;;;;10533400;28;20097;-36
2023/06/29 11:55:55;;;;;;;20.95;11.00;;;24.70;83.80;;;;;;10533156;28;20139;-33
2023/06/29 12:00:57;;;;;;;15.48;9.32;;;24.90;82.60;;;;;;10532642;28;20041;-32
2023/06/29 12:06:01;;;;;;;30.60;14.30;;;26.30;73.00;;;;;;10529337;28;20947;-33
2023/06/29 12:11:05;;;;;;;18.25;10.35;;;26.00;74.30;;;;;;10533223;28;20043;-33
2023/06/29 12:16:07;;;;;;;18.58;10.20;;;24.90;82.70;;;;;;10529380;28;20052;-33
2023/06/29 12:21:10;;;;;;;15.73;9.32;;;26.20;73.20;;;;;;10525123;28;20106;-35
2023/06/29 12:26:12;;;;;;;30.73;15.73;;;26.40;71.80;;;;;;10522549;28;20051;-33
2023/06/29 12:31:15;;;;;;;23.85;13.18;;;25.00;81.20;;;;;;10532278;28;20040;-32
2023/06/29 12:36:18;;;;;;;15.13;10.18;;;25.10;80.10;;;;;;10506882;28;20071;-34
2023/06/29 12:41:20;;;;;;;18.52;9.13;;;26.00;75.00;;;;;;10521340;28;20052;-32
2023/06/29 12:46:23;;;;;;;17.83;6.30;;;24.70;80.80;;;;;;10517472;28;20048;-34
2023/06/29 12:51:26;;;;;;;10.70;6.90;;;24.70;82.40;;;;;;10513949;28;20051;-32
2023/06/29 12:56:28;;;;;;;12.43;6.28;;;25.70;74.50;;;;;;10533872;28;20060;-34
2023/06/29 13:01:30;;;;;;;5.85;3.25;;;25.60;77.70;;;;;;10530954;28;20469;-33
2023/06/29 13:06:34;;;;;;;5.18;3.53;;;24.90;78.50;;;;;;10520459;28;20126;-32
2023/06/29 13:11:36;;;;;;;8.18;5.05;;;24.90;79.60;;;;;;10530372;28;20121;-32
2023/06/29 13:16:37;;;;;;;2.67;1.65;;;26.60;68.20;;;;;;10530621;28;20060;-35
2023/06/29 13:21:41;;;;;;;2.83;2.38;;;24.00;81.40;;;;;;10528269;28;20127;-34
2023/06/29 13:26:43;;;;;;;2.55;2.10;;;24.70;78.00;;;;;;10529953;28;20082;-32
2023/06/29 13:31:44;;;;;;;3.58;2.30;;;25.80;72.00;;;;;;10532371;28;20047;-33
2023/06/29 13:36:48;;;;;;;2.28;1.48;;;26.60;67.20;;;;;;10523958;28;20047;-33
2023/06/29 13:41:50;;;;;;;5.00;1.05;;;25.70;72.70;;;;;;10526727;28;20523;-31
2023/06/29 13:46:52;;;;;;;3.10;0.68;;;26.70;66.60;;;;;;10528294;28;20500;-33
2023/06/29 13:51:55;;;;;;;1.05;0.60;;;26.30;66.40;;;;;;10522946;28;20082;-32
2023/06/29 13:56:57;;;;;;;1.63;0.65;;;26.80;64.80;;;;;;10516024;28;20154;-38
2023/06/29 14:01:59;;;;;;;0.45;0.30;;;25.80;67.10;;;;;;10531026;28;20134;-34
2023/06/29 14:07:02;;;;;;;1.27;0.52;;;26.10;68.00;;;;;;10528601;28;20068;-32
2023/06/29 14:12:04;;;;;;;1.33;0.50;;;27.30;62.40;;;;;;10513335;28;20076;-36
2023/06/29 14:17:07;;;;;;;2.33;0.65;;;27.10;63.10;;;;;;10520730;28;20097;-32
2023/06/29 14:22:11;;;;;;;2.10;0.47;;;26.50;63.90;;;;;;10526743;28;20048;-33
2023/06/29 14:27:13;;;;;;;1.92;0.40;;;26.20;64.10;;;;;;10512081;28;20058;-32
2023/06/29 14:32:15;;;;;;;1.15;0.30;;;26.40;63.00;;;;;;10515677;28;20054;-35
2023/06/29 14:37:18;;;;;;;1.17;0.32;;;26.10;66.70;;;;;;10524760;28;20135;-33
2023/06/29 14:42:20;;;;;;;2.05;0.43;;;26.20;63.00;;;;;;10514384;28;20044;-33
2023/06/29 14:47:22;;;;;;;1.90;0.50;;;26.20;65.20;;;;;;10513475;28;20120;-33
2023/06/29 14:52:25;;;;;;;1.05;0.30;;;26.00;66.40;;;;;;10509080;28;20077;-34
2023/06/29 14:57:27;;;;;;;2.30;0.43;;;26.90;62.50;;;;;;10513446;28;20074;-37
2023/06/29 15:02:29;;;;;;;2.53;0.50;;;26.80;61.80;;;;;;10512790;28;20072;-32
2023/06/29 15:07:32;;;;;;;3.38;0.50;;;25.40;67.90;;;;;;10519542;28;20052;-33
2023/06/29 15:12:34;;;;;;;1.05;0.40;;;25.70;66.70;;;;;;10519377;28;20121;-33
2023/06/29 15:17:36;;;;;;;2.83;0.52;;;26.40;64.80;;;;;;10519996;28;20586;-33
2023/06/29 15:22:40;;;;;;;1.98;0.60;;;26.50;63.00;;;;;;10517027;28;20063;-34
2023/06/29 15:27:42;;;;;;;2.78;0.60;;;25.90;63.40;;;;;;10522311;28;20125;-35
2023/06/29 15:32:44;;;;;;;1.13;0.38;;;27.00;61.60;;;;;;10508843;28;20076;-34
2023/06/29 15:37:47;;;;;;;3.60;0.40;;;26.90;61.60;;;;;;10512430;28;20516;-33
2023/06/29 15:42:49;;;;;;;1.13;0.45;;;26.40;63.00;;;;;;10518291;28;20101;-31
2023/06/29 15:47:51;;;;;;;2.63;0.40;;;26.60;62.40;;;;;;10519666;28;20071;-33
2023/06/29 15:52:54;;;;;;;0.80;0.35;;;26.50;63.30;;;;;;10524924;28;20139;-36
2023/06/29 15:57:56;;;;;;;2.00;0.35;;;25.70;66.00;;;;;;10519993;28;20135;-34
2023/06/29 16:02:58;;;;;;;4.57;0.93;;;26.00;63.50;;;;;;10521078;28;20142;-35
2023/06/29 16:08:02;;;;;;;1.25;0.52;;;25.50;64.90;;;;;;10514803;28;20088;-33
2023/06/29 16:13:04;;;;;;;1.20;0.30;;;26.00;62.30;;;;;;10506794;28;20350;-32
2023/06/29 16:18:06;;;;;;;2.38;0.50;;;26.10;62.30;;;;;;10517765;28;20086;-35
2023/06/29 16:23:09;;;;;;;2.05;0.57;;;26.60;60.90;;;;;;10530026;28;20055;-32
2023/06/29 16:28:11;;;;;;;2.00;0.52;;;25.50;61.00;;;;;;10524777;28;20509;-34
2023/06/29 16:33:13;;;;;;;3.95;0.90;;;24.70;68.50;;;;;;10532296;28;20086;-32
2023/06/29 16:38:16;;;;;;;4.30;0.90;;;25.30;65.80;;;;;;10503916;28;20044;-34
2023/06/29 16:43:18;;;;;;;4.30;0.70;;;25.50;65.00;;;;;;10526805;28;20151;-33
2023/06/29 16:48:19;;;;;;;1.45;0.60;;;26.30;60.30;;;;;;10519346;28;20483;-32
2023/06/29 16:53:23;;;;;;;2.13;0.77;;;26.70;60.30;;;;;;10527117;28;20293;-31
2023/06/29 16:58:27;;;;;;;1.52;0.60;;;27.20;59.40;;;;;;10530247;28;20449;-36
2023/06/29 17:03:29;;;;;;;2.67;0.50;;;26.90;59.30;;;;;;10511602;28;20461;-32
2023/06/29 17:08:32;;;;;;;1.48;0.60;;;26.50;59.50;;;;;;10518108;28;20127;-32
2023/06/29 17:13:34;;;;;;;3.25;0.65;;;26.90;58.80;;;;;;10510057;28;20134;-32
2023/06/29 17:18:36;;;;;;;2.28;0.65;;;26.90;58.10;;;;;;10522465;28;20117;-38
2023/06/29 17:23:39;;;;;;;4.13;0.73;;;27.20;57.90;;;;;;10524827;28;20052;-35
2023/06/29 17:28:41;;;;;;;4.05;0.70;;;26.10;60.00;;;;;;10520299;28;20080;-32
2023/06/29 17:33:43;;;;;;;3.40;0.95;;;26.40;59.80;;;;;;10520203;28;20113;-36
2023/06/29 17:38:47;;;;;;;2.53;0.80;;;26.20;59.40;;;;;;10520685;28;20051;-40
2023/06/29 17:43:48;;;;;;;2.95;0.90;;;26.60;58.80;;;;;;10526371;28;20096;-32
2023/06/29 17:48:50;;;;;;;5.25;1.30;;;26.00;60.30;;;;;;10515882;28;20048;-38
2023/06/29 17:53:53;;;;;;;7.05;1.10;;;25.50;60.00;;;;;;10518002;28;20064;-37
2023/06/29 17:58:55;;;;;;;2.45;0.95;;;25.40;60.80;;;;;;10523787;28;20149;-39
2023/06/29 18:03:57;;;;;;;4.20;0.90;;;25.40;62.50;;;;;;10519072;28;20097;-39
2023/06/29 18:09:01;;;;;;;5.65;0.77;;;26.50;59.00;;;;;;10528358;28;20068;-32
2023/06/29 18:14:02;;;;;;;4.13;1.02;;;26.40;58.70;;;;;;10523443;28;20507;-36
2023/06/29 18:19:04;;;;;;;3.72;0.90;;;26.70;58.10;;;;;;10516430;28;20074;-33
2023/06/29 18:24:08;;;;;;;4.30;1.00;;;26.80;57.60;;;;;;10509699;28;20482;-33
2023/06/29 18:29:10;;;;;;;3.13;1.10;;;26.00;58.20;;;;;;10519355;28;20054;-31
2023/06/29 18:34:12;;;;;;;2.95;0.90;;;26.80;57.60;;;;;;10522992;28;20097;-32
2023/06/29 18:39:15;;;;;;;3.28;0.98;;;26.90;57.10;;;;;;10525109;28;20090;-34
2023/06/29 18:44:17;;;;;;;1.80;0.90;;;26.40;58.60;;;;;;10519719;28;20074;-33
2023/06/29 18:49:19;;;;;;;3.08;1.13;;;26.70;57.40;;;;;;10516163;28;20083;-32
2023/06/29 18:54:22;;;;;;;5.03;1.27;;;26.60;57.30;;;;;;10521380;28;20102;-31
2023/06/29 18:59:24;;;;;;;3.22;0.77;;;26.70;57.00;;;;;;10502607;28;21690;-34
2023/06/29 19:04:27;;;;;;;3.63;1.10;;;26.60;57.20;;;;;;10520941;28;20036;-33
2023/06/29 19:09:31;;;;;;;4.13;1.10;;;26.50;56.00;;;;;;10517854;28;20036;-35
2023/06/29 19:14:33;;;;;;;5.50;1.25;;;26.90;57.20;;;;;;10522179;28;20064;-33
2023/06/29 19:19:35;;;;;;;9.82;1.25;;;26.90;57.20;;;;;;10522865;28;20626;-32
2023/06/29 19:24:38;;;;;;;4.70;1.40;;;26.60;57.20;;;;;;10511780;28;20055;-32
2023/06/29 19:29:40;;;;;;;7.65;1.30;;;26.50;58.20;;;;;;10512698;28;20135;-32
2023/06/29 19:34:42;;;;;;;8.15;1.60;;;27.00;57.20;;;;;;10508530;28;20134;-34
2023/06/29 19:39:46;;;;;;;8.95;1.60;;;26.60;58.00;;;;;;10513643;28;20109;-34
2023/06/29 19:44:48;;;;;;;7.88;2.55;;;26.90;57.50;;;;;;10519145;28;20051;-32
2023/06/29 19:49:49;;;;;;;11.82;2.63;;;26.90;57.60;;;;;;10509010;28;20059;-31
2023/06/29 19:54:55;;;;;;;25.15;2.33;;;27.10;57.40;;;;;;10522150;28;20086;-34
2023/06/29 19:59:57;;;;;;;20.98;2.55;;;27.00;57.40;;;;;;10529284;28;20089;-31
2023/06/29 20:04:59;;;;;;;14.43;2.72;;;26.90;57.30;;;;;;10498117;28;20081;-32
2023/06/29 20:10:02;;;;;;;17.55;3.45;;;26.90;57.30;;;;;;10524784;28;20094;-33
2023/06/29 20:15:05;;;;;;;10.73;2.38;;;26.90;57.10;;;;;;10523065;28;20087;-31
2023/06/29 20:20:08;;;;;;;16.27;2.70;;;26.90;57.10;;;;;;10526869;28;20071;-33
2023/06/29 20:25:11;;;;;;;13.07;2.28;;;26.90;57.00;;;;;;10518387;28;20131;-30
2023/06/29 20:30:13;;;;;;;6.28;1.63;;;26.80;57.00;;;;;;10524582;28;20054;-34
2023/06/29 20:35:15;;;;;;;8.02;1.90;;;26.80;56.90;;;;;;10524414;28;20151;-31
2023/06/29 20:40:18;;;;;;;12.30;1.85;;;26.80;56.80;;;;;;10513199;28;20072;-32
2023/06/29 20:45:21;;;;;;;4.43;1.42;;;26.80;56.80;;;;;;10522329;28;20045;-31
2023/06/29 20:50:22;;;;;;;9.07;1.63;;;26.70;56.60;;;;;;10517258;28;20130;-31
2023/06/29 20:55:26;;;;;;;4.88;1.35;;;26.70;56.60;;;;;;10519922;28;20131;-32
2023/06/29 21:00:27;;;;;;;3.75;1.13;;;26.70;56.50;;;;;;10527999;28;20540;-32
2023/06/29 21:05:29;;;;;;;4.72;1.95;;;26.70;56.40;;;;;;10518899;28;20048;-29
2023/06/29 21:10:32;;;;;;;7.45;1.65;;;26.60;56.60;;;;;;10509096;28;20075;-36
2023/06/29 21:15:35;;;;;;;5.32;1.45;;;26.60;56.60;;;;;;10521394;28;20059;-32
2023/06/29 21:20:37;;;;;;;7.57;1.52;;;26.60;56.60;;;;;;10528062;28;20040;-32
2023/06/29 21:25:41;;;;;;;5.22;1.48;;;26.60;56.50;;;;;;10523161;28;20485;-32
2023/06/29 21:30:43;;;;;;;6.18;1.63;;;26.50;56.50;;;;;;10508418;28;20820;-30
2023/06/29 21:35:45;;;;;;;6.13;1.88;;;26.50;56.40;;;;;;10522954;28;20500;-32
2023/06/29 21:40:48;;;;;;;6.65;1.88;;;26.50;56.50;;;;;;10522063;28;20121;-31
2023/06/29 21:45:50;;;;;;;6.45;1.98;;;26.50;56.50;;;;;;10509869;28;20191;-32
2023/06/29 21:50:52;;;;;;;3.30;1.63;;;26.40;56.40;;;;;;10530744;28;20502;-32
2023/06/29 21:55:55;;;;;;;6.88;1.73;;;26.40;56.40;;;;;;10511700;28;20094;-32
2023/06/29 22:00:58;;;;;;;7.03;1.85;;;26.40;56.40;;;;;;10490386;28;20043;-32
2023/06/29 22:06:00;;;;;;;8.32;2.13;;;26.40;56.30;;;;;;10515290;28;20035;-33
2023/06/29 22:11:03;;;;;;;4.97;2.28;;;26.30;56.30;;;;;;10498081;28;20052;-38
2023/06/29 22:16:05;;;;;;;6.15;2.08;;;26.30;56.30;;;;;;10511973;28;20552;-34
2023/06/29 22:21:08;;;;;;;7.75;2.85;;;26.30;56.30;;;;;;10509451;28;20064;-33
2023/06/29 22:26:11;;;;;;;5.75;2.17;;;26.30;56.30;;;;;;10510062;28;20134;-32
2023/06/29 22:31:16;;;;;;;5.25;2.95;;;26.20;56.30;;;;;;10505325;28;20161;-35
2023/06/29 22:36:18;;;;;;;4.53;2.10;;;26.20;56.30;;;;;;10503821;28;20059;-34
2023/06/29 22:41:22;;;;;;;3.63;1.90;;;26.20;56.30;;;;;;10512558;28;20484;-32
2023/06/29 22:46:25;;;;;;;4.50;1.90;;;26.10;56.20;;;;;;10508923;28;20616;-34
2023/06/29 22:51:26;;;;;;;6.10;2.17;;;26.10;56.20;;;;;;10520386;28;20053;-32
2023/06/29 22:56:31;;;;;;;5.40;2.40;;;26.10;56.30;;;;;;10515961;28;20058;-31
2023/06/29 23:01:32;;;;;;;4.70;2.00;;;26.10;56.30;;;;;;10502913;28;20119;-32
2023/06/29 23:06:38;;;;;;;4.28;2.33;;;26.00;56.30;;;;;;10505399;28;20051;-33
2023/06/29 23:11:41;;;;;;;5.95;1.88;;;26.00;56.30;;;;;;10500248;28;20068;-32
2023/06/29 23:16:45;;;;;;;4.25;1.70;;;26.00;56.30;;;;;;10513339;28;20455;-31
2023/06/29 23:21:46;;;;;;;3.22;1.95;;;26.00;56.90;;;;;;10506986;28;20504;-32
2023/06/29 23:26:50;;;;;;;5.93;1.88;;;25.90;56.30;;;;;;10505530;28;20051;-32
2023/06/29 23:31:52;;;;;;;5.72;2.00;;;25.90;56.30;;;;;;10523482;28;20044;-35
2023/06/29 23:36:54;;;;;;;2.65;1.80;;;25.90;56.30;;;;;;10523958;28;20052;-31
2023/06/29 23:41:58;;;;;;;3.25;1.23;;;25.80;56.20;;;;;;10520232;28;20386;-32
2023/06/29 23:47:00;;;;;;;4.53;1.70;;;25.80;56.30;;;;;;10523206;28;20059;-32
2023/06/29 23:52:02;;;;;;;4.45;1.85;;;25.80;56.30;;;;;;10520575;28;20142;-33
2023/06/29 23:57:07;;;;;;;5.10;1.50;;;25.80;56.30;;;;;;10532345;28;20060;-33
